sensor_id;sensor_type;location;lat;lon;timestamp;P1;durP1;ratioP1;P2;durP2;ratioP2
22573;SDS011;11453;52.052;20.430;2022-07-29T00:00:38;14.50;;;6.57;;
22573;SDS011;11453;52.052;20.430;2022-07-29T00:03:04;11.30;;;5.75;;
22573;SDS011;11453;52.052;20.430;2022-07-29T00:05:30;12.35;;;6.22;;
22573;SDS011;11453;52.052;20.430;2022-07-29T00:07:56;12.52;;;6.07;;
22573;SDS011;11453;52.052;20.430;2022-07-29T00:10:22;13.60;;;5.68;;
22573;SDS011;11453;52.052;20.430;2022-07-29T00:12:48;11.23;;;6.13;;
22573;SDS011;11453;52.052;20.430;2022-07-29T00:15:13;13.10;;;6.00;;
22573;SDS011;11453;52.052;20.430;2022-07-29T00:17:39;13.98;;;6.15;;
22573;SDS011;11453;52.052;20.430;2022-07-29T00:20:05;10.52;;;5.70;;
22573;SDS011;11453;52.052;20.430;2022-07-29T00:22:31;11.23;;;5.90;;
22573;SDS011;11453;52.052;20.430;2022-07-29T00:24:57;14.75;;;6.40;;
22573;SDS011;11453;52.052;20.430;2022-07-29T00:27:23;12.40;;;5.70;;
22573;SDS011;11453;52.052;20.430;2022-07-29T00:29:48;12.02;;;6.22;;
22573;SDS011;11453;52.052;20.430;2022-07-29T00:32:14;12.25;;;6.07;;
22573;SDS011;11453;52.052;20.430;2022-07-29T00:34:40;11.15;;;5.82;;
22573;SDS011;11453;52.052;20.430;2022-07-29T00:37:24;12.45;;;6.32;;
22573;SDS011;11453;52.052;20.430;2022-07-29T00:39:50;15.00;;;6.45;;
22573;SDS011;11453;52.052;20.430;2022-07-29T00:42:16;13.27;;;6.25;;
22573;SDS011;11453;52.052;20.430;2022-07-29T00:44:42;12.85;;;6.43;;
22573;SDS011;11453;52.052;20.430;2022-07-29T00:47:09;12.45;;;6.13;;
22573;SDS011;11453;52.052;20.430;2022-07-29T00:49:36;11.43;;;6.03;;
22573;SDS011;11453;52.052;20.430;2022-07-29T00:52:03;10.85;;;5.80;;
22573;SDS011;11453;52.052;20.430;2022-07-29T00:54:30;12.10;;;6.00;;
22573;SDS011;11453;52.052;20.430;2022-07-29T00:56:59;10.95;;;5.40;;
22573;SDS011;11453;52.052;20.430;2022-07-29T00:59:28;10.60;;;5.95;;
22573;SDS011;11453;52.052;20.430;2022-07-29T01:01:54;11.43;;;5.70;;
22573;SDS011;11453;52.052;20.430;2022-07-29T01:04:23;11.68;;;5.70;;
22573;SDS011;11453;52.052;20.430;2022-07-29T01:06:49;12.63;;;5.93;;
22573;SDS011;11453;52.052;20.430;2022-07-29T01:09:15;10.93;;;5.78;;
22573;SDS011;11453;52.052;20.430;2022-07-29T01:11:43;11.15;;;5.63;;
22573;SDS011;11453;52.052;20.430;2022-07-29T01:14:11;10.98;;;5.50;;
22573;SDS011;11453;52.052;20.430;2022-07-29T01:16:42;11.43;;;6.18;;
22573;SDS011;11453;52.052;20.430;2022-07-29T01:19:25;11.30;;;5.75;;
22573;SDS011;11453;52.052;20.430;2022-07-29T01:25:04;13.75;;;5.75;;
22573;SDS011;11453;52.052;20.430;2022-07-29T01:30:22;10.15;;;5.28;;
22573;SDS011;11453;52.052;20.430;2022-07-29T01:32:50;9.88;;;5.50;;
22573;SDS011;11453;52.052;20.430;2022-07-29T01:35:28;10.73;;;5.53;;
22573;SDS011;11453;52.052;20.430;2022-07-29T01:40:45;8.55;;;5.07;;
22573;SDS011;11453;52.052;20.430;2022-07-29T01:43:15;10.02;;;5.07;;
22573;SDS011;11453;52.052;20.430;2022-07-29T01:45:45;9.23;;;4.82;;
22573;SDS011;11453;52.052;20.430;2022-07-29T01:48:23;9.15;;;4.97;;
22573;SDS011;11453;52.052;20.430;2022-07-29T01:51:14;11.95;;;5.20;;
22573;SDS011;11453;52.052;20.430;2022-07-29T01:56:27;8.55;;;5.13;;
22573;SDS011;11453;52.052;20.430;2022-07-29T01:58:55;10.35;;;5.07;;
22573;SDS011;11453;52.052;20.430;2022-07-29T02:01:23;10.50;;;5.03;;
22573;SDS011;11453;52.052;20.430;2022-07-29T02:03:50;9.32;;;4.50;;
22573;SDS011;11453;52.052;20.430;2022-07-29T02:06:18;12.95;;;5.18;;
22573;SDS011;11453;52.052;20.430;2022-07-29T02:08:45;9.00;;;4.63;;
22573;SDS011;11453;52.052;20.430;2022-07-29T02:11:13;11.65;;;5.20;;
22573;SDS011;11453;52.052;20.430;2022-07-29T02:13:39;12.25;;;5.30;;
22573;SDS011;11453;52.052;20.430;2022-07-29T02:16:07;11.15;;;4.97;;
22573;SDS011;11453;52.052;20.430;2022-07-29T02:18:35;11.43;;;5.22;;
22573;SDS011;11453;52.052;20.430;2022-07-29T02:21:04;10.43;;;4.68;;
22573;SDS011;11453;52.052;20.430;2022-07-29T02:23:30;11.45;;;4.82;;
22573;SDS011;11453;52.052;20.430;2022-07-29T02:25:57;10.55;;;5.65;;
22573;SDS011;11453;52.052;20.430;2022-07-29T02:28:27;10.68;;;5.15;;
22573;SDS011;11453;52.052;20.430;2022-07-29T02:30:55;11.20;;;5.30;;
22573;SDS011;11453;52.052;20.430;2022-07-29T02:33:24;9.93;;;4.80;;
22573;SDS011;11453;52.052;20.430;2022-07-29T02:35:51;10.32;;;5.03;;
22573;SDS011;11453;52.052;20.430;2022-07-29T02:38:17;10.80;;;5.35;;
22573;SDS011;11453;52.052;20.430;2022-07-29T02:41:14;12.00;;;5.47;;
22573;SDS011;11453;52.052;20.430;2022-07-29T02:43:43;11.25;;;5.57;;
22573;SDS011;11453;52.052;20.430;2022-07-29T02:46:13;11.05;;;5.72;;
22573;SDS011;11453;52.052;20.430;2022-07-29T02:48:43;11.65;;;5.57;;
22573;SDS011;11453;52.052;20.430;2022-07-29T02:51:19;12.68;;;5.32;;
22573;SDS011;11453;52.052;20.430;2022-07-29T02:53:51;10.82;;;5.55;;
22573;SDS011;11453;52.052;20.430;2022-07-29T02:56:20;10.98;;;5.05;;
22573;SDS011;11453;52.052;20.430;2022-07-29T02:58:53;10.63;;;5.30;;
22573;SDS011;11453;52.052;20.430;2022-07-29T03:01:25;9.45;;;5.10;;
22573;SDS011;11453;52.052;20.430;2022-07-29T03:03:55;9.05;;;4.75;;
22573;SDS011;11453;52.052;20.430;2022-07-29T03:06:22;9.50;;;5.05;;
22573;SDS011;11453;52.052;20.430;2022-07-29T03:08:50;9.38;;;5.05;;
22573;SDS011;11453;52.052;20.430;2022-07-29T03:11:16;8.82;;;5.13;;
22573;SDS011;11453;52.052;20.430;2022-07-29T03:13:43;8.70;;;4.88;;
22573;SDS011;11453;52.052;20.430;2022-07-29T03:16:09;9.25;;;5.00;;
22573;SDS011;11453;52.052;20.430;2022-07-29T03:18:36;9.50;;;4.97;;
22573;SDS011;11453;52.052;20.430;2022-07-29T03:21:03;9.40;;;4.88;;
22573;SDS011;11453;52.052;20.430;2022-07-29T03:23:29;11.73;;;5.20;;
22573;SDS011;11453;52.052;20.430;2022-07-29T03:25:55;9.18;;;4.63;;
22573;SDS011;11453;52.052;20.430;2022-07-29T03:28:21;8.68;;;4.90;;
22573;SDS011;11453;52.052;20.430;2022-07-29T03:30:47;9.32;;;5.00;;
22573;SDS011;11453;52.052;20.430;2022-07-29T03:33:14;10.10;;;5.13;;
22573;SDS011;11453;52.052;20.430;2022-07-29T03:35:39;10.32;;;4.78;;
22573;SDS011;11453;52.052;20.430;2022-07-29T03:38:05;9.55;;;5.00;;
22573;SDS011;11453;52.052;20.430;2022-07-29T03:43:05;8.77;;;4.93;;
22573;SDS011;11453;52.052;20.430;2022-07-29T03:45:32;10.05;;;4.53;;
22573;SDS011;11453;52.052;20.430;2022-07-29T03:48:02;10.63;;;5.10;;
22573;SDS011;11453;52.052;20.430;2022-07-29T03:50:33;7.28;;;4.30;;
22573;SDS011;11453;52.052;20.430;2022-07-29T03:53:00;9.40;;;3.90;;
22573;SDS011;11453;52.052;20.430;2022-07-29T03:55:26;8.68;;;4.22;;
22573;SDS011;11453;52.052;20.430;2022-07-29T03:57:54;9.88;;;4.57;;
22573;SDS011;11453;52.052;20.430;2022-07-29T04:00:23;10.38;;;6.13;;
22573;SDS011;11453;52.052;20.430;2022-07-29T04:02:50;12.68;;;5.20;;
22573;SDS011;11453;52.052;20.430;2022-07-29T04:05:16;8.82;;;4.43;;
22573;SDS011;11453;52.052;20.430;2022-07-29T04:07:45;9.60;;;4.15;;
22573;SDS011;11453;52.052;20.430;2022-07-29T04:10:12;8.40;;;3.92;;
22573;SDS011;11453;52.052;20.430;2022-07-29T04:12:40;10.82;;;4.32;;
22573;SDS011;11453;52.052;20.430;2022-07-29T04:15:06;7.78;;;3.75;;
22573;SDS011;11453;52.052;20.430;2022-07-29T04:17:32;8.68;;;4.35;;
22573;SDS011;11453;52.052;20.430;2022-07-29T04:19:58;11.05;;;5.72;;
22573;SDS011;11453;52.052;20.430;2022-07-29T04:22:23;9.10;;;4.38;;
22573;SDS011;11453;52.052;20.430;2022-07-29T04:24:49;8.75;;;4.00;;
22573;SDS011;11453;52.052;20.430;2022-07-29T04:27:15;8.35;;;4.10;;
22573;SDS011;11453;52.052;20.430;2022-07-29T04:29:40;8.55;;;3.92;;
22573;SDS011;11453;52.052;20.430;2022-07-29T04:32:06;9.52;;;3.83;;
22573;SDS011;11453;52.052;20.430;2022-07-29T04:34:32;7.70;;;3.35;;
22573;SDS011;11453;52.052;20.430;2022-07-29T04:36:57;7.35;;;3.45;;
22573;SDS011;11453;52.052;20.430;2022-07-29T04:39:23;10.48;;;3.75;;
22573;SDS011;11453;52.052;20.430;2022-07-29T04:41:50;5.45;;;3.10;;
22573;SDS011;11453;52.052;20.430;2022-07-29T04:44:16;7.57;;;3.58;;
22573;SDS011;11453;52.052;20.430;2022-07-29T04:46:42;7.60;;;3.20;;
22573;SDS011;11453;52.052;20.430;2022-07-29T04:49:08;7.43;;;3.33;;
22573;SDS011;11453;52.052;20.430;2022-07-29T04:51:34;7.63;;;3.30;;
22573;SDS011;11453;52.052;20.430;2022-07-29T04:53:59;7.97;;;3.30;;
22573;SDS011;11453;52.052;20.430;2022-07-29T04:56:25;5.68;;;3.20;;
22573;SDS011;11453;52.052;20.430;2022-07-29T04:58:51;8.57;;;3.53;;
22573;SDS011;11453;52.052;20.430;2022-07-29T05:01:17;8.27;;;3.15;;
22573;SDS011;11453;52.052;20.430;2022-07-29T05:03:43;5.72;;;2.80;;
22573;SDS011;11453;52.052;20.430;2022-07-29T05:06:10;6.95;;;3.08;;
22573;SDS011;11453;52.052;20.430;2022-07-29T05:08:35;7.88;;;3.03;;
22573;SDS011;11453;52.052;20.430;2022-07-29T05:11:02;7.60;;;3.05;;
22573;SDS011;11453;52.052;20.430;2022-07-29T05:13:28;7.70;;;3.00;;
22573;SDS011;11453;52.052;20.430;2022-07-29T05:15:54;5.00;;;2.90;;
22573;SDS011;11453;52.052;20.430;2022-07-29T05:18:19;8.82;;;2.90;;
22573;SDS011;11453;52.052;20.430;2022-07-29T05:20:45;9.40;;;3.47;;
22573;SDS011;11453;52.052;20.430;2022-07-29T05:23:11;8.52;;;4.85;;
22573;SDS011;11453;52.052;20.430;2022-07-29T05:25:40;8.70;;;4.00;;
22573;SDS011;11453;52.052;20.430;2022-07-29T05:28:06;9.45;;;4.20;;
22573;SDS011;11453;52.052;20.430;2022-07-29T05:30:32;7.45;;;3.38;;
22573;SDS011;11453;52.052;20.430;2022-07-29T05:32:58;6.78;;;3.10;;
22573;SDS011;11453;52.052;20.430;2022-07-29T05:35:23;6.57;;;2.90;;
22573;SDS011;11453;52.052;20.430;2022-07-29T05:37:49;8.77;;;3.67;;
22573;SDS011;11453;52.052;20.430;2022-07-29T05:40:15;10.57;;;4.35;;
22573;SDS011;11453;52.052;20.430;2022-07-29T05:42:41;10.07;;;3.83;;
22573;SDS011;11453;52.052;20.430;2022-07-29T05:45:06;6.75;;;2.88;;
22573;SDS011;11453;52.052;20.430;2022-07-29T05:47:33;6.72;;;3.00;;
22573;SDS011;11453;52.052;20.430;2022-07-29T05:49:59;8.18;;;2.85;;
22573;SDS011;11453;52.052;20.430;2022-07-29T05:52:24;6.90;;;3.28;;
22573;SDS011;11453;52.052;20.430;2022-07-29T05:54:50;5.75;;;3.17;;
22573;SDS011;11453;52.052;20.430;2022-07-29T05:57:17;8.95;;;3.53;;
22573;SDS011;11453;52.052;20.430;2022-07-29T05:59:47;6.65;;;3.45;;
22573;SDS011;11453;52.052;20.430;2022-07-29T06:02:14;10.52;;;4.82;;
22573;SDS011;11453;52.052;20.430;2022-07-29T06:04:40;8.50;;;3.53;;
22573;SDS011;11453;52.052;20.430;2022-07-29T06:07:06;7.32;;;3.08;;
22573;SDS011;11453;52.052;20.430;2022-07-29T06:09:32;6.68;;;3.10;;
22573;SDS011;11453;52.052;20.430;2022-07-29T06:11:58;6.53;;;2.53;;
22573;SDS011;11453;52.052;20.430;2022-07-29T06:14:24;6.78;;;2.70;;
22573;SDS011;11453;52.052;20.430;2022-07-29T06:16:51;6.57;;;2.80;;
22573;SDS011;11453;52.052;20.430;2022-07-29T06:19:18;6.85;;;2.70;;
22573;SDS011;11453;52.052;20.430;2022-07-29T06:21:44;10.98;;;3.10;;
22573;SDS011;11453;52.052;20.430;2022-07-29T06:24:13;7.32;;;2.53;;
22573;SDS011;11453;52.052;20.430;2022-07-29T06:26:40;5.43;;;2.20;;
22573;SDS011;11453;52.052;20.430;2022-07-29T06:29:06;7.15;;;2.85;;
22573;SDS011;11453;52.052;20.430;2022-07-29T06:31:33;7.80;;;3.13;;
22573;SDS011;11453;52.052;20.430;2022-07-29T06:33:59;9.15;;;3.30;;
22573;SDS011;11453;52.052;20.430;2022-07-29T06:36:25;7.88;;;2.90;;
22573;SDS011;11453;52.052;20.430;2022-07-29T06:38:50;6.65;;;2.63;;
22573;SDS011;11453;52.052;20.430;2022-07-29T06:41:16;6.90;;;2.65;;
22573;SDS011;11453;52.052;20.430;2022-07-29T06:43:43;6.18;;;2.33;;
22573;SDS011;11453;52.052;20.430;2022-07-29T06:46:11;7.38;;;2.30;;
22573;SDS011;11453;52.052;20.430;2022-07-29T06:48:38;8.77;;;2.40;;
22573;SDS011;11453;52.052;20.430;2022-07-29T06:51:06;7.63;;;2.45;;
22573;SDS011;11453;52.052;20.430;2022-07-29T06:53:32;6.15;;;2.60;;
22573;SDS011;11453;52.052;20.430;2022-07-29T06:55:59;4.78;;;2.20;;
22573;SDS011;11453;52.052;20.430;2022-07-29T06:58:25;7.78;;;3.22;;
22573;SDS011;11453;52.052;20.430;2022-07-29T07:00:52;5.45;;;2.55;;
22573;SDS011;11453;52.052;20.430;2022-07-29T07:03:18;5.97;;;2.72;;
22573;SDS011;11453;52.052;20.430;2022-07-29T07:05:44;5.20;;;2.22;;
22573;SDS011;11453;52.052;20.430;2022-07-29T07:08:10;6.75;;;2.47;;
22573;SDS011;11453;52.052;20.430;2022-07-29T07:10:37;7.53;;;2.65;;
22573;SDS011;11453;52.052;20.430;2022-07-29T07:13:03;5.38;;;2.40;;
22573;SDS011;11453;52.052;20.430;2022-07-29T07:15:30;5.03;;;2.35;;
22573;SDS011;11453;52.052;20.430;2022-07-29T07:17:56;8.93;;;2.65;;
22573;SDS011;11453;52.052;20.430;2022-07-29T07:20:22;4.13;;;1.73;;
22573;SDS011;11453;52.052;20.430;2022-07-29T07:22:48;10.10;;;2.60;;
22573;SDS011;11453;52.052;20.430;2022-07-29T07:25:14;8.65;;;2.42;;
22573;SDS011;11453;52.052;20.430;2022-07-29T07:27:40;8.63;;;2.70;;
22573;SDS011;11453;52.052;20.430;2022-07-29T07:30:06;12.07;;;2.55;;
22573;SDS011;11453;52.052;20.430;2022-07-29T07:32:33;7.38;;;2.45;;
22573;SDS011;11453;52.052;20.430;2022-07-29T07:35:00;7.53;;;2.45;;
22573;SDS011;11453;52.052;20.430;2022-07-29T07:37:25;6.20;;;2.38;;
22573;SDS011;11453;52.052;20.430;2022-07-29T07:39:52;7.32;;;2.42;;
22573;SDS011;11453;52.052;20.430;2022-07-29T07:42:18;8.57;;;2.08;;
22573;SDS011;11453;52.052;20.430;2022-07-29T07:44:44;4.97;;;1.92;;
22573;SDS011;11453;52.052;20.430;2022-07-29T07:47:11;6.30;;;2.10;;
22573;SDS011;11453;52.052;20.430;2022-07-29T07:49:37;4.53;;;2.22;;
22573;SDS011;11453;52.052;20.430;2022-07-29T07:52:03;6.47;;;2.17;;
22573;SDS011;11453;52.052;20.430;2022-07-29T07:54:29;5.57;;;1.77;;
22573;SDS011;11453;52.052;20.430;2022-07-29T07:56:55;5.10;;;2.28;;
22573;SDS011;11453;52.052;20.430;2022-07-29T07:59:21;8.80;;;2.08;;
22573;SDS011;11453;52.052;20.430;2022-07-29T08:01:47;7.15;;;1.98;;
22573;SDS011;11453;52.052;20.430;2022-07-29T08:04:13;6.13;;;2.30;;
22573;SDS011;11453;52.052;20.430;2022-07-29T08:06:39;5.88;;;1.77;;
22573;SDS011;11453;52.052;20.430;2022-07-29T08:09:05;4.20;;;1.60;;
22573;SDS011;11453;52.052;20.430;2022-07-29T08:11:31;7.05;;;1.98;;
22573;SDS011;11453;52.052;20.430;2022-07-29T08:13:57;7.82;;;1.70;;
22573;SDS011;11453;52.052;20.430;2022-07-29T08:16:23;2.85;;;1.52;;
22573;SDS011;11453;52.052;20.430;2022-07-29T08:18:50;7.53;;;2.00;;
22573;SDS011;11453;52.052;20.430;2022-07-29T08:21:16;3.58;;;1.70;;
22573;SDS011;11453;52.052;20.430;2022-07-29T08:23:45;5.82;;;1.90;;
22573;SDS011;11453;52.052;20.430;2022-07-29T08:26:14;4.70;;;1.45;;
22573;SDS011;11453;52.052;20.430;2022-07-29T08:28:40;6.40;;;1.95;;
22573;SDS011;11453;52.052;20.430;2022-07-29T08:31:10;7.13;;;1.90;;
22573;SDS011;11453;52.052;20.430;2022-07-29T08:33:37;9.27;;;2.25;;
22573;SDS011;11453;52.052;20.430;2022-07-29T08:36:03;8.65;;;2.15;;
22573;SDS011;11453;52.052;20.430;2022-07-29T08:38:30;8.35;;;2.13;;
22573;SDS011;11453;52.052;20.430;2022-07-29T08:40:55;9.38;;;2.30;;
22573;SDS011;11453;52.052;20.430;2022-07-29T08:43:21;9.50;;;2.45;;
22573;SDS011;11453;52.052;20.430;2022-07-29T08:45:48;4.68;;;1.90;;
22573;SDS011;11453;52.052;20.430;2022-07-29T08:48:19;5.05;;;1.52;;
22573;SDS011;11453;52.052;20.430;2022-07-29T08:50:47;4.95;;;1.48;;
22573;SDS011;11453;52.052;20.430;2022-07-29T08:53:15;5.47;;;1.98;;
22573;SDS011;11453;52.052;20.430;2022-07-29T08:55:42;5.80;;;1.88;;
22573;SDS011;11453;52.052;20.430;2022-07-29T08:58:09;7.07;;;1.70;;
22573;SDS011;11453;52.052;20.430;2022-07-29T09:00:36;6.28;;;1.60;;
22573;SDS011;11453;52.052;20.430;2022-07-29T09:03:06;7.75;;;2.10;;
22573;SDS011;11453;52.052;20.430;2022-07-29T09:05:34;4.68;;;1.70;;
22573;SDS011;11453;52.052;20.430;2022-07-29T09:08:00;5.75;;;2.00;;
22573;SDS011;11453;52.052;20.430;2022-07-29T09:10:27;4.47;;;1.70;;
22573;SDS011;11453;52.052;20.430;2022-07-29T09:12:56;5.47;;;1.80;;
22573;SDS011;11453;52.052;20.430;2022-07-29T09:15:22;8.50;;;2.38;;
22573;SDS011;11453;52.052;20.430;2022-07-29T09:17:48;8.27;;;2.80;;
22573;SDS011;11453;52.052;20.430;2022-07-29T09:20:15;5.78;;;2.00;;
22573;SDS011;11453;52.052;20.430;2022-07-29T09:22:42;6.40;;;1.92;;
22573;SDS011;11453;52.052;20.430;2022-07-29T09:25:12;6.70;;;1.77;;
22573;SDS011;11453;52.052;20.430;2022-07-29T09:27:38;4.63;;;1.30;;
22573;SDS011;11453;52.052;20.430;2022-07-29T09:30:05;5.78;;;1.67;;
22573;SDS011;11453;52.052;20.430;2022-07-29T09:32:32;4.82;;;1.60;;
22573;SDS011;11453;52.052;20.430;2022-07-29T09:35:22;5.80;;;1.75;;
22573;SDS011;11453;52.052;20.430;2022-07-29T09:37:49;4.32;;;1.50;;
22573;SDS011;11453;52.052;20.430;2022-07-29T09:40:16;6.30;;;1.85;;
22573;SDS011;11453;52.052;20.430;2022-07-29T09:42:47;7.45;;;2.00;;
22573;SDS011;11453;52.052;20.430;2022-07-29T09:45:35;4.55;;;2.08;;
22573;SDS011;11453;52.052;20.430;2022-07-29T09:47:59;6.72;;;2.00;;
22573;SDS011;11453;52.052;20.430;2022-07-29T09:50:39;6.03;;;2.45;;
22573;SDS011;11453;52.052;20.430;2022-07-29T09:53:07;8.05;;;2.03;;
22573;SDS011;11453;52.052;20.430;2022-07-29T09:55:51;5.30;;;1.60;;
22573;SDS011;11453;52.052;20.430;2022-07-29T09:58:17;3.17;;;1.63;;
22573;SDS011;11453;52.052;20.430;2022-07-29T10:00:44;8.95;;;1.90;;
22573;SDS011;11453;52.052;20.430;2022-07-29T10:03:11;5.93;;;1.48;;
22573;SDS011;11453;52.052;20.430;2022-07-29T10:05:38;5.10;;;1.17;;
22573;SDS011;11453;52.052;20.430;2022-07-29T10:08:04;3.97;;;1.33;;
22573;SDS011;11453;52.052;20.430;2022-07-29T10:10:31;5.10;;;1.40;;
22573;SDS011;11453;52.052;20.430;2022-07-29T10:13:03;2.92;;;1.50;;
22573;SDS011;11453;52.052;20.430;2022-07-29T10:15:31;5.90;;;1.80;;
22573;SDS011;11453;52.052;20.430;2022-07-29T10:18:02;5.00;;;1.70;;
22573;SDS011;11453;52.052;20.430;2022-07-29T10:20:28;3.50;;;1.52;;
22573;SDS011;11453;52.052;20.430;2022-07-29T10:22:54;3.70;;;1.40;;
22573;SDS011;11453;52.052;20.430;2022-07-29T10:25:21;6.18;;;1.90;;
22573;SDS011;11453;52.052;20.430;2022-07-29T10:27:47;4.78;;;1.75;;
22573;SDS011;11453;52.052;20.430;2022-07-29T10:30:14;4.57;;;1.70;;
22573;SDS011;11453;52.052;20.430;2022-07-29T10:35:49;5.63;;;1.80;;
22573;SDS011;11453;52.052;20.430;2022-07-29T10:38:37;6.45;;;2.08;;
22573;SDS011;11453;52.052;20.430;2022-07-29T10:41:17;3.60;;;1.70;;
22573;SDS011;11453;52.052;20.430;2022-07-29T10:44:00;5.72;;;1.90;;
22573;SDS011;11453;52.052;20.430;2022-07-29T10:46:34;7.30;;;1.60;;
22573;SDS011;11453;52.052;20.430;2022-07-29T10:54:16;7.63;;;1.75;;
22573;SDS011;11453;52.052;20.430;2022-07-29T10:56:43;5.35;;;1.83;;
22573;SDS011;11453;52.052;20.430;2022-07-29T11:01:44;6.25;;;1.80;;
22573;SDS011;11453;52.052;20.430;2022-07-29T11:04:10;7.35;;;2.05;;
22573;SDS011;11453;52.052;20.430;2022-07-29T11:09:23;2.92;;;1.30;;
22573;SDS011;11453;52.052;20.430;2022-07-29T11:11:49;3.65;;;1.67;;
22573;SDS011;11453;52.052;20.430;2022-07-29T11:14:15;9.82;;;2.17;;
22573;SDS011;11453;52.052;20.430;2022-07-29T11:17:01;5.55;;;1.95;;
22573;SDS011;11453;52.052;20.430;2022-07-29T11:19:29;8.20;;;2.05;;
22573;SDS011;11453;52.052;20.430;2022-07-29T11:21:54;5.25;;;1.92;;
22573;SDS011;11453;52.052;20.430;2022-07-29T11:27:05;4.22;;;1.50;;
22573;SDS011;11453;52.052;20.430;2022-07-29T11:29:31;4.65;;;1.55;;
22573;SDS011;11453;52.052;20.430;2022-07-29T11:32:07;10.50;;;1.90;;
22573;SDS011;11453;52.052;20.430;2022-07-29T11:34:39;5.13;;;1.50;;
22573;SDS011;11453;52.052;20.430;2022-07-29T11:47:31;5.47;;;1.40;;
22573;SDS011;11453;52.052;20.430;2022-07-29T11:50:09;3.28;;;1.30;;
22573;SDS011;11453;52.052;20.430;2022-07-29T11:52:41;3.47;;;1.27;;
22573;SDS011;11453;52.052;20.430;2022-07-29T11:55:11;4.22;;;1.30;;
22573;SDS011;11453;52.052;20.430;2022-07-29T11:57:49;3.80;;;1.23;;
22573;SDS011;11453;52.052;20.430;2022-07-29T12:00:25;5.13;;;1.00;;
22573;SDS011;11453;52.052;20.430;2022-07-29T12:02:51;4.55;;;1.20;;
22573;SDS011;11453;52.052;20.430;2022-07-29T12:05:17;5.22;;;1.20;;
22573;SDS011;11453;52.052;20.430;2022-07-29T12:07:43;4.57;;;1.30;;
22573;SDS011;11453;52.052;20.430;2022-07-29T12:10:09;4.57;;;1.15;;
22573;SDS011;11453;52.052;20.430;2022-07-29T12:12:35;3.28;;;1.25;;
22573;SDS011;11453;52.052;20.430;2022-07-29T12:15:12;5.40;;;1.20;;
22573;SDS011;11453;52.052;20.430;2022-07-29T12:17:37;3.78;;;1.27;;
22573;SDS011;11453;52.052;20.430;2022-07-29T12:20:04;3.30;;;1.15;;
22573;SDS011;11453;52.052;20.430;2022-07-29T12:25:08;3.97;;;1.20;;
22573;SDS011;11453;52.052;20.430;2022-07-29T12:27:36;4.00;;;1.52;;
22573;SDS011;11453;52.052;20.430;2022-07-29T12:30:06;4.63;;;1.42;;
22573;SDS011;11453;52.052;20.430;2022-07-29T12:35:04;5.22;;;1.23;;
22573;SDS011;11453;52.052;20.430;2022-07-29T12:37:33;5.73;;;1.00;;
22573;SDS011;11453;52.052;20.430;2022-07-29T12:40:00;2.58;;;0.90;;
22573;SDS011;11453;52.052;20.430;2022-07-29T12:42:27;3.63;;;1.30;;
22573;SDS011;11453;52.052;20.430;2022-07-29T12:44:53;3.92;;;1.00;;
22573;SDS011;11453;52.052;20.430;2022-07-29T12:47:19;4.57;;;1.23;;
22573;SDS011;11453;52.052;20.430;2022-07-29T12:49:45;2.53;;;0.80;;
22573;SDS011;11453;52.052;20.430;2022-07-29T12:54:56;14.27;;;2.13;;
22573;SDS011;11453;52.052;20.430;2022-07-29T12:57:23;5.63;;;1.90;;
22573;SDS011;11453;52.052;20.430;2022-07-29T12:59:59;9.70;;;1.90;;
22573;SDS011;11453;52.052;20.430;2022-07-29T13:02:35;15.52;;;2.60;;
22573;SDS011;11453;52.052;20.430;2022-07-29T13:05:02;7.22;;;2.00;;
22573;SDS011;11453;52.052;20.430;2022-07-29T13:07:29;8.73;;;1.75;;
22573;SDS011;11453;52.052;20.430;2022-07-29T13:10:10;14.85;;;4.20;;
22573;SDS011;11453;52.052;20.430;2022-07-29T13:12:39;8.93;;;3.17;;
22573;SDS011;11453;52.052;20.430;2022-07-29T13:15:28;7.70;;;3.92;;
22573;SDS011;11453;52.052;20.430;2022-07-29T13:17:54;4.53;;;2.25;;
22573;SDS011;11453;52.052;20.430;2022-07-29T13:20:22;4.00;;;1.60;;
22573;SDS011;11453;52.052;20.430;2022-07-29T13:22:49;8.07;;;2.20;;
22573;SDS011;11453;52.052;20.430;2022-07-29T13:25:23;10.18;;;2.10;;
22573;SDS011;11453;52.052;20.430;2022-07-29T13:27:53;9.88;;;2.10;;
22573;SDS011;11453;52.052;20.430;2022-07-29T13:30:19;5.82;;;1.70;;
22573;SDS011;11453;52.052;20.430;2022-07-29T13:32:46;7.22;;;1.48;;
22573;SDS011;11453;52.052;20.430;2022-07-29T13:35:12;3.72;;;1.40;;
22573;SDS011;11453;52.052;20.430;2022-07-29T13:37:38;3.72;;;1.40;;
22573;SDS011;11453;52.052;20.430;2022-07-29T13:40:05;5.60;;;1.50;;
22573;SDS011;11453;52.052;20.430;2022-07-29T13:42:32;11.57;;;2.05;;
22573;SDS011;11453;52.052;20.430;2022-07-29T13:44:58;7.32;;;2.10;;
22573;SDS011;11453;52.052;20.430;2022-07-29T13:47:25;6.65;;;2.17;;
22573;SDS011;11453;52.052;20.430;2022-07-29T13:49:50;8.05;;;2.00;;
22573;SDS011;11453;52.052;20.430;2022-07-29T13:52:16;12.18;;;2.70;;
22573;SDS011;11453;52.052;20.430;2022-07-29T13:54:42;8.80;;;2.47;;
22573;SDS011;11453;52.052;20.430;2022-07-29T13:57:09;8.27;;;2.20;;
22573;SDS011;11453;52.052;20.430;2022-07-29T13:59:35;4.82;;;1.70;;
22573;SDS011;11453;52.052;20.430;2022-07-29T14:02:01;3.97;;;1.70;;
22573;SDS011;11453;52.052;20.430;2022-07-29T14:04:27;4.68;;;1.70;;
22573;SDS011;11453;52.052;20.430;2022-07-29T14:06:53;12.07;;;3.65;;
22573;SDS011;11453;52.052;20.430;2022-07-29T14:09:20;15.90;;;4.88;;
22573;SDS011;11453;52.052;20.430;2022-07-29T14:11:46;13.77;;;3.70;;
22573;SDS011;11453;52.052;20.430;2022-07-29T14:14:14;9.80;;;2.95;;
22573;SDS011;11453;52.052;20.430;2022-07-29T14:16:40;12.73;;;3.35;;
22573;SDS011;11453;52.052;20.430;2022-07-29T14:19:05;9.80;;;3.63;;
22573;SDS011;11453;52.052;20.430;2022-07-29T14:21:32;12.73;;;4.47;;
22573;SDS011;11453;52.052;20.430;2022-07-29T14:23:57;4.97;;;1.40;;
22573;SDS011;11453;52.052;20.430;2022-07-29T14:26:23;5.25;;;1.75;;
22573;SDS011;11453;52.052;20.430;2022-07-29T14:28:49;6.57;;;1.75;;
22573;SDS011;11453;52.052;20.430;2022-07-29T14:31:15;4.90;;;1.55;;
22573;SDS011;11453;52.052;20.430;2022-07-29T14:33:41;3.60;;;1.13;;
22573;SDS011;11453;52.052;20.430;2022-07-29T14:36:07;4.53;;;1.27;;
22573;SDS011;11453;52.052;20.430;2022-07-29T14:38:34;2.50;;;1.10;;
22573;SDS011;11453;52.052;20.430;2022-07-29T14:41:00;1.67;;;0.80;;
22573;SDS011;11453;52.052;20.430;2022-07-29T14:43:26;3.33;;;1.00;;
22573;SDS011;11453;52.052;20.430;2022-07-29T14:45:52;4.50;;;1.88;;
22573;SDS011;11453;52.052;20.430;2022-07-29T14:48:17;4.80;;;1.67;;
22573;SDS011;11453;52.052;20.430;2022-07-29T14:50:43;9.02;;;2.53;;
22573;SDS011;11453;52.052;20.430;2022-07-29T14:53:09;7.38;;;2.17;;
22573;SDS011;11453;52.052;20.430;2022-07-29T14:55:34;21.98;;;6.40;;
22573;SDS011;11453;52.052;20.430;2022-07-29T14:58:00;22.35;;;6.30;;
22573;SDS011;11453;52.052;20.430;2022-07-29T15:00:26;5.13;;;1.33;;
22573;SDS011;11453;52.052;20.430;2022-07-29T15:02:52;5.55;;;1.90;;
22573;SDS011;11453;52.052;20.430;2022-07-29T15:05:17;9.07;;;2.42;;
22573;SDS011;11453;52.052;20.430;2022-07-29T15:07:43;6.22;;;2.00;;
22573;SDS011;11453;52.052;20.430;2022-07-29T15:10:09;7.63;;;2.50;;
22573;SDS011;11453;52.052;20.430;2022-07-29T15:12:34;8.07;;;2.30;;
22573;SDS011;11453;52.052;20.430;2022-07-29T15:15:00;5.22;;;1.88;;
22573;SDS011;11453;52.052;20.430;2022-07-29T15:17:26;5.32;;;2.13;;
22573;SDS011;11453;52.052;20.430;2022-07-29T15:19:51;4.20;;;1.67;;
22573;SDS011;11453;52.052;20.430;2022-07-29T15:22:17;4.55;;;1.70;;